Terminal Aerodrome Forecast
Issued by NWS

Home | Current Version | Previous Version | Text Only | Print | Product List | Glossary On
Versions: 1 2 3 4 5 6 7 8 9 10 11 12 13 14 15 16 17 18 19 20 21
000
FTAK31 PAJN 231100
TAFAJN
TAF
PAJN 231126Z 2312/2412 10008KT P6SM -SHRA FEW010 BKN050 OVC070
     FM231400 VRB03KT P6SM VCFG FEW005 BKN050 BKN080
     FM231800 24006KT P6SM SCT100
     FM240200 VRB05KT P6SM SCT100=

USA.gov is the U.S. government's official web portal to all federal, state and local government web resources and services.